PWSweather.com
Personal Weather Stations
Station Observations
WDJH1
Il, Wood Dale, IL 60191

IlWood Dale, IL 60191

Lat: 41.9730204, Lon: -87.9791968

Elevation: 730

Station Type:

High Low Average
Temperature 80.6°F27.0°F 72.0°F22.2°F 76.1°F24.5°F
Dew Point 73.9°F23.3°F 64.2°F17.9°F 68.7°F20.4°F
Winds 16.0 mph WSW25.7 mph WSW 4.0 mph 6.4 mph 8.5 mph 13.7 mph
Wind Gusts 28.0 mph45.1 mph 9.0 mph14.5 mph 17.2 mph27.7 mph
Humidity 94% 62% 79%
Pressure 29.75 in1007.50 in 29.65 in1004.10 in -
Precipitation 0.04 in1.00 in - -
Hour Temp Dew Point Humidity Winds Wind Gusts Pressure Precip Precip Rate Daily Precip Total
12:00 AM 76.7°F24.8°C 73.9°F23.3°C 91% 5.0 mph S8.0 kmh S 16.0 mph25.7 kmh 29.75 in1007.5 mb 0.00 in0.0 mm 0.00 in0.0 mm 0.00 in0.0 mm
12:15 AM 76.7°F24.8°C 73.9°F23.3°C 91% 5.0 mph S8.0 kmh S 11.0 mph17.7 kmh 29.75 in1007.5 mb 0.00 in0.0 mm 0.00 in0.0 mm 0.00 in0.0 mm
12:30 AM 76.5°F24.7°C 73.7°F23.2°C 91% 4.0 mph S6.4 kmh S 9.0 mph14.5 kmh 29.74 in1007.1 mb 0.00 in0.0 mm 0.00 in0.0 mm 0.00 in0.0 mm
12:45 AM 76.4°F24.7°C 73.6°F23.1°C 91% 4.0 mph SSW6.4 kmh SSW 10.0 mph16.1 kmh 29.74 in1007.1 mb 0.00 in0.0 mm 0.00 in0.0 mm 0.00 in0.0 mm
01:00 AM 76.2°F24.6°C 73.1°F22.8°C 90% 5.0 mph S8.0 kmh S 13.0 mph20.9 kmh 29.73 in1006.8 mb 0.00 in0.0 mm 0.00 in0.0 mm 0.00 in0.0 mm
01:15 AM 76.1°F24.5°C 73.0°F22.8°C 90% 5.0 mph SSW8.0 kmh SSW 11.0 mph17.7 kmh 29.73 in1006.8 mb 0.00 in0.0 mm 0.00 in0.0 mm 0.00 in0.0 mm
01:30 AM 76.1°F24.5°C 72.3°F22.4°C 88% 5.0 mph SSW8.0 kmh SSW 14.0 mph22.5 kmh 29.73 in1006.8 mb 0.00 in0.0 mm 0.00 in0.0 mm 0.00 in0.0 mm
01:45 AM 75.9°F24.4°C 72.1°F22.3°C 88% 5.0 mph SSW8.0 kmh SSW 14.0 mph22.5 kmh 29.73 in1006.8 mb 0.00 in0.0 mm 0.00 in0.0 mm 0.00 in0.0 mm
02:00 AM 75.7°F24.3°C 71.6°F22.0°C 87% 5.0 mph SSW8.0 kmh SSW 11.0 mph17.7 kmh 29.73 in1006.8 mb 0.00 in0.0 mm 0.00 in0.0 mm 0.00 in0.0 mm
02:15 AM 75.5°F24.2°C 71.0°F21.7°C 86% 6.0 mph SSW9.7 kmh SSW 12.0 mph19.3 kmh 29.72 in1006.4 mb 0.00 in0.0 mm 0.00 in0.0 mm 0.00 in0.0 mm
02:30 AM 75.3°F24.1°C 70.5°F21.4°C 85% 5.0 mph SSW8.0 kmh SSW 12.0 mph19.3 kmh 29.72 in1006.4 mb 0.00 in0.0 mm 0.00 in0.0 mm 0.00 in0.0 mm
02:45 AM 75.0°F23.9°C 70.2°F21.2°C 85% 4.0 mph SSW6.4 kmh SSW 9.0 mph14.5 kmh 29.72 in1006.4 mb 0.00 in0.0 mm 0.00 in0.0 mm 0.00 in0.0 mm
03:00 AM 74.9°F23.8°C 70.1°F21.2°C 85% 5.0 mph SSW8.0 kmh SSW 12.0 mph19.3 kmh 29.72 in1006.4 mb 0.00 in0.0 mm 0.00 in0.0 mm 0.00 in0.0 mm
03:15 AM 74.9°F23.8°C 69.7°F20.9°C 84% 6.0 mph SW9.7 kmh SW 12.0 mph19.3 kmh 29.71 in1006.1 mb 0.00 in0.0 mm 0.00 in0.0 mm 0.00 in0.0 mm
03:30 AM 74.7°F23.7°C 69.9°F21.1°C 85% 4.0 mph SSW6.4 kmh SSW 9.0 mph14.5 kmh 29.71 in1006.1 mb 0.00 in0.0 mm 0.00 in0.0 mm 0.00 in0.0 mm
03:45 AM 74.4°F23.6°C 69.6°F20.9°C 85% 4.0 mph S6.4 kmh S 9.0 mph14.5 kmh 29.71 in1006.1 mb 0.00 in0.0 mm 0.00 in0.0 mm 0.00 in0.0 mm
04:00 AM 74.4°F23.6°C 69.6°F20.9°C 85% 6.0 mph SSW9.7 kmh SSW 12.0 mph19.3 kmh 29.71 in1006.1 mb 0.00 in0.0 mm 0.00 in0.0 mm 0.00 in0.0 mm
04:15 AM 74.4°F23.6°C 69.6°F20.9°C 85% 5.0 mph SSW8.0 kmh SSW 15.0 mph24.1 kmh 29.71 in1006.1 mb 0.00 in0.0 mm 0.00 in0.0 mm 0.00 in0.0 mm
04:30 AM 74.3°F23.5°C 69.5°F20.8°C 85% 6.0 mph SSW9.7 kmh SSW 13.0 mph20.9 kmh 29.71 in1006.1 mb 0.00 in0.0 mm 0.00 in0.0 mm 0.00 in0.0 mm
04:45 AM 74.3°F23.5°C 69.5°F20.8°C 85% 8.0 mph SW12.9 kmh SW 17.0 mph27.4 kmh 29.71 in1006.1 mb 0.00 in0.0 mm 0.00 in0.0 mm 0.00 in0.0 mm
05:00 AM 73.5°F23.1°C 68.7°F20.4°C 85% 6.0 mph SW9.7 kmh SW 17.0 mph27.4 kmh 29.70 in1005.8 mb 0.00 in0.0 mm 0.00 in0.0 mm 0.00 in0.0 mm
05:15 AM 73.5°F23.1°C 68.7°F20.4°C 85% 6.0 mph SW9.7 kmh SW 17.0 mph27.4 kmh 29.71 in1006.1 mb 0.00 in0.0 mm 0.00 in0.0 mm 0.00 in0.0 mm
05:30 AM 73.5°F23.1°C 68.7°F20.4°C 85% 6.0 mph SW9.7 kmh SW 17.0 mph27.4 kmh 29.71 in1006.1 mb 0.00 in0.0 mm 0.00 in0.0 mm 0.00 in0.0 mm
05:45 AM 73.5°F23.1°C 68.7°F20.4°C 85% 6.0 mph SW9.7 kmh SW 17.0 mph27.4 kmh 29.71 in1006.1 mb 0.00 in0.0 mm 0.00 in0.0 mm 0.00 in0.0 mm
06:00 AM 73.5°F23.1°C 68.7°F20.4°C 85% 6.0 mph SW9.7 kmh SW 17.0 mph27.4 kmh 29.71 in1006.1 mb 0.00 in0.0 mm 0.00 in0.0 mm 0.00 in0.0 mm
06:15 AM 73.5°F23.1°C 68.7°F20.4°C 85% 6.0 mph SW9.7 kmh SW 17.0 mph27.4 kmh 29.71 in1006.1 mb 0.00 in0.0 mm 0.00 in0.0 mm 0.00 in0.0 mm
06:30 AM 73.5°F23.1°C 68.7°F20.4°C 85% 6.0 mph SW9.7 kmh SW 17.0 mph27.4 kmh 29.71 in1006.1 mb 0.00 in0.0 mm 0.00 in0.0 mm 0.00 in0.0 mm
06:45 AM 73.5°F23.1°C 68.7°F20.4°C 85% 6.0 mph SW9.7 kmh SW 17.0 mph27.4 kmh 29.71 in1006.1 mb 0.00 in0.0 mm 0.00 in0.0 mm 0.00 in0.0 mm
07:00 AM 73.5°F23.1°C 68.7°F20.4°C 85% 6.0 mph SW9.7 kmh SW 17.0 mph27.4 kmh 29.72 in1006.4 mb 0.00 in0.0 mm 0.00 in0.0 mm 0.00 in0.0 mm
07:15 AM 73.5°F23.1°C 68.7°F20.4°C 85% 6.0 mph SW9.7 kmh SW 17.0 mph27.4 kmh 29.72 in1006.4 mb 0.00 in0.0 mm 0.00 in0.0 mm 0.00 in0.0 mm
07:30 AM 72.0°F22.2°C 70.2°F21.2°C 94% 4.0 mph SSW6.4 kmh SSW 11.0 mph17.7 kmh 29.72 in1006.4 mb 0.00 in0.0 mm 0.00 in0.0 mm 0.00 in0.0 mm
07:45 AM 72.2°F22.3°C 70.1°F21.2°C 93% 4.0 mph SSW6.4 kmh SSW 10.0 mph16.1 kmh 29.72 in1006.4 mb 0.00 in0.0 mm 0.00 in0.0 mm 0.00 in0.0 mm
08:00 AM 72.2°F22.3°C 70.1°F21.2°C 93% 5.0 mph SSW8.0 kmh SSW 13.0 mph20.9 kmh 29.71 in1006.1 mb 0.00 in0.0 mm 0.00 in0.0 mm 0.00 in0.0 mm
08:15 AM 72.2°F22.3°C 70.1°F21.2°C 93% 5.0 mph SSW8.0 kmh SSW 11.0 mph17.7 kmh 29.71 in1006.1 mb 0.00 in0.0 mm 0.00 in0.0 mm 0.00 in0.0 mm
08:30 AM 72.6°F22.6°C 70.1°F21.2°C 92% 5.0 mph S8.0 kmh S 10.0 mph16.1 kmh 29.70 in1005.8 mb 0.00 in0.0 mm 0.00 in0.0 mm 0.00 in0.0 mm
08:45 AM 73.0°F22.8°C 70.2°F21.2°C 91% 6.0 mph SSW9.7 kmh SSW 12.0 mph19.3 kmh 29.70 in1005.8 mb 0.00 in0.0 mm 0.00 in0.0 mm 0.00 in0.0 mm
09:00 AM 72.8°F22.7°C 70.0°F21.1°C 91% 5.0 mph SW8.0 kmh SW 15.0 mph24.1 kmh 29.70 in1005.8 mb 0.00 in0.0 mm 0.00 in0.0 mm 0.00 in0.0 mm
09:15 AM 73.1°F22.8°C 70.3°F21.3°C 91% 4.0 mph SSW6.4 kmh SSW 13.0 mph20.9 kmh 29.69 in1005.4 mb 0.00 in0.0 mm 0.00 in0.0 mm 0.00 in0.0 mm
09:30 AM 73.5°F23.1°C 70.4°F21.3°C 90% 6.0 mph SW9.7 kmh SW 11.0 mph17.7 kmh 29.69 in1005.4 mb 0.00 in0.0 mm 0.00 in0.0 mm 0.00 in0.0 mm
09:45 AM 73.8°F23.2°C 70.7°F21.5°C 90% 5.0 mph SW8.0 kmh SW 12.0 mph19.3 kmh 29.69 in1005.4 mb 0.00 in0.0 mm 0.00 in0.0 mm 0.00 in0.0 mm
10:00 AM 74.0°F23.3°C 70.6°F21.4°C 89% 5.0 mph SW8.0 kmh SW 11.0 mph17.7 kmh 29.69 in1005.4 mb 0.00 in0.0 mm 0.00 in0.0 mm 0.00 in0.0 mm
10:15 AM 74.1°F23.4°C 70.3°F21.3°C 88% 8.0 mph SW12.9 kmh SW 18.0 mph29.0 kmh 29.70 in1005.8 mb 0.00 in0.0 mm 0.00 in0.0 mm 0.00 in0.0 mm
10:30 AM 73.2°F22.9°C 70.4°F21.3°C 91% 7.0 mph SW11.3 kmh SW 13.0 mph20.9 kmh 29.69 in1005.4 mb 0.00 in0.0 mm 0.00 in0.0 mm 0.00 in0.0 mm
10:45 AM 73.2°F22.9°C 70.4°F21.3°C 91% 7.0 mph SW11.3 kmh SW 12.0 mph19.3 kmh 29.69 in1005.4 mb 0.00 in0.0 mm 0.00 in0.0 mm 0.00 in0.0 mm
11:00 AM 73.4°F23.0°C 70.9°F21.6°C 92% 7.0 mph SW11.3 kmh SW 12.0 mph19.3 kmh 29.69 in1005.4 mb 0.00 in0.0 mm 0.00 in0.0 mm 0.00 in0.0 mm
11:15 AM 74.1°F23.4°C 71.0°F21.7°C 90% 7.0 mph SW11.3 kmh SW 12.0 mph19.3 kmh 29.69 in1005.4 mb 0.00 in0.0 mm 0.00 in0.0 mm 0.00 in0.0 mm
11:30 AM 75.5°F24.2°C 71.4°F21.9°C 87% 8.0 mph SW12.9 kmh SW 14.0 mph22.5 kmh 29.69 in1005.4 mb 0.00 in0.0 mm 0.00 in0.0 mm 0.00 in0.0 mm
11:45 AM 76.1°F24.5°C 71.6°F22.0°C 86% 8.0 mph SW12.9 kmh SW 16.0 mph25.7 kmh 29.68 in1005.1 mb 0.00 in0.0 mm 0.00 in0.0 mm 0.00 in0.0 mm
12:00 PM 77.9°F25.5°C 72.0°F22.2°C 82% 6.0 mph SW9.7 kmh SW 14.0 mph22.5 kmh 29.67 in1004.7 mb 0.01 in0.3 mm 0.01 in0.3 mm 0.01 in0.3 mm
12:15 PM 78.3°F25.7°C 70.9°F21.6°C 78% 12.0 mph SW19.3 kmh SW 21.0 mph33.8 kmh 29.67 in1004.7 mb 0.01 in0.3 mm 0.00 in0.0 mm 0.01 in0.3 mm
12:30 PM 79.7°F26.5°C 70.3°F21.3°C 73% 11.0 mph SW17.7 kmh SW 19.0 mph30.6 kmh 29.66 in1004.4 mb 0.01 in0.3 mm 0.00 in0.0 mm 0.01 in0.3 mm
12:45 PM 80.3°F26.8°C 68.8°F20.4°C 68% 13.0 mph SW20.9 kmh SW 22.0 mph35.4 kmh 29.66 in1004.4 mb 0.01 in0.3 mm 0.00 in0.0 mm 0.01 in0.3 mm
01:00 PM 79.7°F26.5°C 69.0°F20.6°C 70% 14.0 mph SW22.5 kmh SW 25.0 mph40.2 kmh 29.66 in1004.4 mb 0.00 in0.0 mm 0.00 in0.0 mm 0.01 in0.3 mm
01:15 PM 80.5°F26.9°C 69.4°F20.8°C 69% 13.0 mph SW20.9 kmh SW 23.0 mph37.0 kmh 29.66 in1004.4 mb 0.00 in0.0 mm 0.00 in0.0 mm 0.01 in0.3 mm
01:30 PM 80.4°F26.9°C 68.0°F20.0°C 66% 15.0 mph SW24.1 kmh SW 25.0 mph40.2 kmh 29.66 in1004.4 mb 0.00 in0.0 mm 0.00 in0.0 mm 0.01 in0.3 mm
01:45 PM 80.1°F26.7°C 68.2°F20.1°C 67% 14.0 mph SW22.5 kmh SW 23.0 mph37.0 kmh 29.66 in1004.4 mb 0.00 in0.0 mm 0.00 in0.0 mm 0.01 in0.3 mm
02:00 PM 79.2°F26.2°C 68.1°F20.1°C 69% 14.0 mph WSW22.5 kmh WSW 22.0 mph35.4 kmh 29.66 in1004.4 mb 0.00 in0.0 mm 0.00 in0.0 mm 0.01 in0.3 mm
02:15 PM 80.6°F27.0°C 69.1°F20.6°C 68% 13.0 mph SW20.9 kmh SW 26.0 mph41.8 kmh 29.65 in1004.1 mb 0.00 in0.0 mm 0.00 in0.0 mm 0.01 in0.3 mm
02:30 PM 80.0°F26.7°C 68.1°F20.1°C 67% 15.0 mph WSW24.1 kmh WSW 28.0 mph45.1 kmh 29.66 in1004.4 mb 0.00 in0.0 mm 0.00 in0.0 mm 0.01 in0.3 mm
02:45 PM 79.8°F26.6°C 67.9°F19.9°C 67% 14.0 mph WSW22.5 kmh WSW 24.0 mph38.6 kmh 29.66 in1004.4 mb 0.00 in0.0 mm 0.00 in0.0 mm 0.01 in0.3 mm
03:00 PM 79.9°F26.6°C 68.0°F20.0°C 67% 14.0 mph WSW22.5 kmh WSW 27.0 mph43.5 kmh 29.66 in1004.4 mb 0.00 in0.0 mm 0.00 in0.0 mm 0.01 in0.3 mm
03:15 PM 80.0°F26.7°C 66.3°F19.1°C 63% 15.0 mph WSW24.1 kmh WSW 26.0 mph41.8 kmh 29.66 in1004.4 mb 0.00 in0.0 mm 0.00 in0.0 mm 0.01 in0.3 mm
03:30 PM 79.4°F26.3°C 66.2°F19.0°C 64% 16.0 mph WSW25.7 kmh WSW 27.0 mph43.5 kmh 29.66 in1004.4 mb 0.00 in0.0 mm 0.00 in0.0 mm 0.01 in0.3 mm
03:45 PM 80.3°F26.8°C 66.1°F18.9°C 62% 12.0 mph SW19.3 kmh SW 24.0 mph38.6 kmh 29.66 in1004.4 mb 0.00 in0.0 mm 0.00 in0.0 mm 0.01 in0.3 mm
04:00 PM 79.8°F26.6°C 66.1°F18.9°C 63% 14.0 mph WSW22.5 kmh WSW 27.0 mph43.5 kmh 29.66 in1004.4 mb 0.00 in0.0 mm 0.00 in0.0 mm 0.01 in0.3 mm
04:15 PM 80.2°F26.8°C 66.5°F19.2°C 63% 15.0 mph SW24.1 kmh SW 24.0 mph38.6 kmh 29.66 in1004.4 mb 0.00 in0.0 mm 0.00 in0.0 mm 0.01 in0.3 mm
04:30 PM 79.8°F26.6°C 66.5°F19.2°C 64% 15.0 mph SW24.1 kmh SW 23.0 mph37.0 kmh 29.66 in1004.4 mb 0.00 in0.0 mm 0.00 in0.0 mm 0.01 in0.3 mm
04:45 PM 80.0°F26.7°C 66.7°F19.3°C 64% 14.0 mph SW22.5 kmh SW 23.0 mph37.0 kmh 29.66 in1004.4 mb 0.00 in0.0 mm 0.00 in0.0 mm 0.01 in0.3 mm
05:00 PM 80.2°F26.8°C 66.9°F19.4°C 64% 14.0 mph SW22.5 kmh SW 26.0 mph41.8 kmh 29.65 in1004.1 mb 0.00 in0.0 mm 0.00 in0.0 mm 0.01 in0.3 mm
05:15 PM 80.2°F26.8°C 67.4°F19.7°C 65% 11.0 mph WSW17.7 kmh WSW 23.0 mph37.0 kmh 29.65 in1004.1 mb 0.00 in0.0 mm 0.00 in0.0 mm 0.01 in0.3 mm
05:30 PM 80.3°F26.8°C 67.0°F19.4°C 64% 11.0 mph WSW17.7 kmh WSW 20.0 mph32.2 kmh 29.66 in1004.4 mb 0.00 in0.0 mm 0.00 in0.0 mm 0.01 in0.3 mm
05:45 PM 80.4°F26.9°C 67.1°F19.5°C 64% 13.0 mph WSW20.9 kmh WSW 26.0 mph41.8 kmh 29.66 in1004.4 mb 0.00 in0.0 mm 0.00 in0.0 mm 0.01 in0.3 mm
06:00 PM 79.9°F26.6°C 67.1°F19.5°C 65% 10.0 mph WSW16.1 kmh WSW 18.0 mph29.0 kmh 29.66 in1004.4 mb 0.00 in0.0 mm 0.00 in0.0 mm 0.01 in0.3 mm
06:15 PM 80.1°F26.7°C 67.3°F19.6°C 65% 12.0 mph SW19.3 kmh SW 21.0 mph33.8 kmh 29.66 in1004.4 mb 0.00 in0.0 mm 0.00 in0.0 mm 0.01 in0.3 mm
06:30 PM 79.6°F26.4°C 67.2°F19.6°C 66% 13.0 mph WSW20.9 kmh WSW 21.0 mph33.8 kmh 29.67 in1004.7 mb 0.00 in0.0 mm 0.00 in0.0 mm 0.01 in0.3 mm
06:45 PM 79.7°F26.5°C 67.3°F19.6°C 66% 11.0 mph WSW17.7 kmh WSW 22.0 mph35.4 kmh 29.66 in1004.4 mb 0.00 in0.0 mm 0.00 in0.0 mm 0.01 in0.3 mm
07:00 PM 79.0°F26.1°C 67.1°F19.5°C 67% 12.0 mph WSW19.3 kmh WSW 27.0 mph43.5 kmh 29.67 in1004.7 mb 0.00 in0.0 mm 0.00 in0.0 mm 0.01 in0.3 mm
07:15 PM 78.8°F26.0°C 66.5°F19.2°C 66% 12.0 mph WSW19.3 kmh WSW 23.0 mph37.0 kmh 29.67 in1004.7 mb 0.00 in0.0 mm 0.00 in0.0 mm 0.01 in0.3 mm
07:30 PM 78.4°F25.8°C 66.5°F19.2°C 67% 12.0 mph WSW19.3 kmh WSW 22.0 mph35.4 kmh 29.68 in1005.1 mb 0.00 in0.0 mm 0.00 in0.0 mm 0.01 in0.3 mm
07:45 PM 77.8°F25.4°C 66.8°F19.3°C 69% 9.0 mph WSW14.5 kmh WSW 16.0 mph25.7 kmh 29.68 in1005.1 mb 0.00 in0.0 mm 0.00 in0.0 mm 0.01 in0.3 mm
08:00 PM 77.5°F25.3°C 66.5°F19.2°C 69% 11.0 mph WSW17.7 kmh WSW 21.0 mph33.8 kmh 29.68 in1005.1 mb 0.00 in0.0 mm 0.00 in0.0 mm 0.01 in0.3 mm
08:15 PM 77.1°F25.1°C 66.6°F19.2°C 70% 9.0 mph WSW14.5 kmh WSW 21.0 mph33.8 kmh 29.69 in1005.4 mb 0.00 in0.0 mm 0.00 in0.0 mm 0.01 in0.3 mm
08:30 PM 76.6°F24.8°C 65.7°F18.7°C 69% 13.0 mph WSW20.9 kmh WSW 23.0 mph37.0 kmh 29.70 in1005.8 mb 0.00 in0.0 mm 0.00 in0.0 mm 0.01 in0.3 mm
08:45 PM 76.2°F24.6°C 65.7°F18.7°C 70% 11.0 mph WSW17.7 kmh WSW 21.0 mph33.8 kmh 29.70 in1005.8 mb 0.00 in0.0 mm 0.00 in0.0 mm 0.01 in0.3 mm
09:00 PM 76.0°F24.4°C 65.9°F18.8°C 71% 9.0 mph WSW14.5 kmh WSW 18.0 mph29.0 kmh 29.71 in1006.1 mb 0.00 in0.0 mm 0.00 in0.0 mm 0.01 in0.3 mm
09:15 PM 75.5°F24.2°C 65.4°F18.6°C 71% 12.0 mph WSW19.3 kmh WSW 25.0 mph40.2 kmh 29.71 in1006.1 mb 0.00 in0.0 mm 0.00 in0.0 mm 0.01 in0.3 mm
09:30 PM 74.7°F23.7°C 65.1°F18.4°C 72% 9.0 mph WSW14.5 kmh WSW 18.0 mph29.0 kmh 29.72 in1006.4 mb 0.00 in0.0 mm 0.00 in0.0 mm 0.01 in0.3 mm
09:45 PM 74.0°F23.3°C 64.8°F18.2°C 73% 8.0 mph WSW12.9 kmh WSW 15.0 mph24.1 kmh 29.72 in1006.4 mb 0.00 in0.0 mm 0.00 in0.0 mm 0.01 in0.3 mm
10:00 PM 74.2°F23.4°C 64.2°F17.9°C 71% 9.0 mph WSW14.5 kmh WSW 17.0 mph27.4 kmh 29.72 in1006.4 mb 0.00 in0.0 mm 0.00 in0.0 mm 0.01 in0.3 mm
10:15 PM 74.0°F23.3°C 64.4°F18.0°C 72% 8.0 mph WSW12.9 kmh WSW 16.0 mph25.7 kmh 29.72 in1006.4 mb 0.00 in0.0 mm 0.00 in0.0 mm 0.01 in0.3 mm
10:30 PM 73.1°F22.8°C 65.1°F18.4°C 76% 7.0 mph WSW11.3 kmh WSW 14.0 mph22.5 kmh 29.72 in1006.4 mb 0.00 in0.0 mm 0.00 in0.0 mm 0.01 in0.3 mm
10:45 PM 72.9°F22.7°C 65.6°F18.7°C 78% 8.0 mph WSW12.9 kmh WSW 18.0 mph29.0 kmh 29.72 in1006.4 mb 0.00 in0.0 mm 0.00 in0.0 mm 0.01 in0.3 mm
11:00 PM 72.8°F22.7°C 65.5°F18.6°C 78% 6.0 mph WSW9.7 kmh WSW 13.0 mph20.9 kmh 29.71 in1006.1 mb 0.00 in0.0 mm 0.00 in0.0 mm 0.01 in0.3 mm
11:15 PM 72.5°F22.5°C 65.6°F18.7°C 79% 6.0 mph WSW9.7 kmh WSW 10.0 mph16.1 kmh 29.71 in1006.1 mb 0.00 in0.0 mm 0.00 in0.0 mm 0.01 in0.3 mm
11:30 PM 72.3°F22.4°C 65.8°F18.8°C 80% 7.0 mph WSW11.3 kmh WSW 12.0 mph19.3 kmh 29.71 in1006.1 mb 0.00 in0.0 mm 0.00 in0.0 mm 0.01 in0.3 mm
11:45 PM 72.1°F22.3°C 65.9°F18.8°C 81% 6.0 mph SW9.7 kmh SW 10.0 mph16.1 kmh 29.71 in1006.1 mb 0.00 in0.0 mm 0.00 in0.0 mm 0.01 in0.3 mm